Time;durP1;ratioP1;P1;durP2;ratioP2;P2;SDS_P1;SDS_P2;PMS_P1;PMS_P2;Temp;Humidity;BMP_temperature;BMP_pressure;BME280_temperature;BME280_humidity;BME280_pressure;Samples;Min_cycle;Max_cycle;Signal;HPM_P1;HPM_P2
2022/02/28 00:01:49;;;;;;;7.67;5.53;;;3.70;29.00;;;;;;10381640;28;20773;-74
2022/02/28 00:06:52;;;;;;;5.87;5.27;;;3.60;29.00;;;;;;10398806;28;20725;-75
2022/02/28 00:11:56;;;;;;;7.90;5.30;;;3.60;29.00;;;;;;10374133;28;20337;-75
2022/02/28 00:17:00;;;;;;;5.00;4.57;;;3.50;28.90;;;;;;10395095;28;20221;-75
2022/02/28 00:22:05;;;;;;;6.40;5.37;;;3.50;29.60;;;;;;10376587;28;20253;-74
2022/02/28 00:27:09;;;;;;;5.33;4.77;;;3.40;29.00;;;;;;10397353;28;20759;-75
2022/02/28 00:32:13;;;;;;;6.90;5.13;;;3.40;29.10;;;;;;10396551;28;20242;-75
2022/02/28 00:37:17;;;;;;;6.60;4.90;;;3.30;29.00;;;;;;10367388;28;20242;-75
2022/02/28 00:42:20;;;;;;;5.50;4.93;;;3.30;29.00;;;;;;10390913;28;20250;-74
2022/02/28 00:47:25;;;;;;;4.97;4.47;;;3.20;29.10;;;;;;10400505;28;20309;-75
2022/02/28 00:52:29;;;;;;;6.47;4.87;;;3.20;29.10;;;;;;10382103;28;20234;-75
2022/02/28 00:57:32;;;;;;;6.00;5.40;;;3.10;29.10;;;;;;10394028;28;20228;-75
2022/02/28 01:02:37;;;;;;;5.47;4.80;;;3.10;29.10;;;;;;10395345;28;20222;-75
2022/02/28 01:07:40;;;;;;;5.37;4.87;;;3.00;29.20;;;;;;10398531;28;20241;-75
2022/02/28 01:12:44;;;;;;;6.10;5.40;;;3.10;29.20;;;;;;10393861;28;20229;-75
2022/02/28 01:17:48;;;;;;;6.00;5.20;;;3.00;29.20;;;;;;10378142;28;20241;-75
2022/02/28 01:22:52;;;;;;;5.87;5.27;;;2.90;29.30;;;;;;10395712;28;20738;-75
2022/02/28 01:27:55;;;;;;;5.37;4.80;;;2.90;29.30;;;;;;10389978;28;20239;-75
2022/02/28 01:33:00;;;;;;;5.23;4.73;;;2.90;29.30;;;;;;10378672;28;20226;-75
2022/02/28 01:38:03;;;;;;;6.60;5.37;;;2.80;29.20;;;;;;10410945;28;20710;-75
2022/02/28 01:43:06;;;;;;;6.10;5.50;;;2.80;29.20;;;;;;10395630;28;20642;-75
2022/02/28 01:48:11;;;;;;;6.23;5.07;;;2.80;29.20;;;;;;10384306;28;20252;-75
2022/02/28 01:53:14;;;;;;;5.37;4.87;;;2.70;29.80;;;;;;10403290;28;20239;-74
2022/02/28 01:58:17;;;;;;;6.07;5.47;;;2.60;29.20;;;;;;10405345;28;20234;-75
2022/02/28 02:03:22;;;;;;;5.03;4.63;;;2.60;29.20;;;;;;10374818;28;20226;-75
2022/02/28 02:08:27;;;;;;;7.07;4.97;;;2.50;29.40;;;;;;10402772;28;20607;-74
2022/02/28 02:13:31;;;;;;;5.53;5.03;;;2.50;29.40;;;;;;10369327;28;20665;-75
2022/02/28 02:18:35;;;;;;;4.60;4.20;;;2.40;29.40;;;;;;10398618;28;20234;-75
2022/02/28 02:23:41;;;;;;;6.00;5.40;;;2.40;29.50;;;;;;10388526;28;20236;-75
2022/02/28 02:28:45;;;;;;;6.27;5.10;;;2.40;29.50;;;;;;10383302;28;20233;-75
2022/02/28 02:33:50;;;;;;;5.70;5.17;;;2.40;29.40;;;;;;10378535;28;20317;-75
2022/02/28 02:38:55;;;;;;;6.23;5.07;;;2.30;29.40;;;;;;10383878;28;20240;-75
2022/02/28 02:43:58;;;;;;;6.47;5.07;;;2.20;29.50;;;;;;10398175;28;20243;-74
2022/02/28 02:49:01;;;;;;;5.77;5.20;;;2.20;29.50;;;;;;10390890;28;20233;-75
2022/02/28 02:54:05;;;;;;;5.30;4.80;;;2.10;29.40;;;;;;10383629;28;20698;-74
2022/02/28 02:59:09;;;;;;;5.80;5.30;;;2.10;29.50;;;;;;10375836;28;20237;-75
2022/02/28 03:04:12;;;;;;;4.67;4.27;;;2.10;29.60;;;;;;10367887;28;20256;-75
2022/02/28 03:09:17;;;;;;;6.70;5.53;;;2.00;29.50;;;;;;10385520;28;20256;-75
2022/02/28 03:14:20;;;;;;;5.93;4.80;;;2.00;29.50;;;;;;10389172;28;20234;-75
2022/02/28 03:19:23;;;;;;;5.73;4.77;;;2.00;29.50;;;;;;10387775;28;20241;-74
2022/02/28 03:24:27;;;;;;;6.07;5.43;;;2.00;29.60;;;;;;10388542;28;20235;-75
2022/02/28 03:29:31;;;;;;;6.43;5.10;;;1.90;29.70;;;;;;10395083;28;20230;-75
2022/02/28 03:34:34;;;;;;;5.67;5.17;;;1.90;29.70;;;;;;10366949;28;20596;-74
2022/02/28 03:39:38;;;;;;;5.97;5.33;;;1.90;29.70;;;;;;10382882;28;20260;-75
2022/02/28 03:44:42;;;;;;;5.47;4.97;;;1.90;29.70;;;;;;10380283;28;20233;-75
2022/02/28 03:49:45;;;;;;;5.43;4.80;;;1.80;29.70;;;;;;10406839;28;20230;-75
2022/02/28 03:54:50;;;;;;;5.23;4.73;;;1.80;29.70;;;;;;10375769;28;20230;-75
2022/02/28 03:59:53;;;;;;;6.77;5.40;;;1.80;29.80;;;;;;10406026;28;20241;-75
2022/02/28 04:04:56;;;;;;;6.23;5.07;;;1.80;29.80;;;;;;10374733;28;20218;-75
2022/02/28 04:10:03;;;;;;;5.30;4.80;;;1.80;29.70;;;;;;10365777;28;20226;-75
2022/02/28 04:15:08;;;;;;;5.80;5.27;;;1.80;29.60;;;;;;10389785;28;20230;-74
2022/02/28 04:20:11;;;;;;;5.83;5.10;;;1.70;29.60;;;;;;10391361;28;20241;-74
2022/02/28 04:25:19;;;;;;;6.10;5.50;;;1.60;29.50;;;;;;10369523;28;20233;-75
2022/02/28 04:30:22;;;;;;;5.80;5.27;;;1.60;29.80;;;;;;10382424;28;20237;-75
2022/02/28 04:35:25;;;;;;;5.27;4.77;;;1.60;29.70;;;;;;10378050;28;20229;-74
2022/02/28 04:40:30;;;;;;;5.83;5.23;;;1.60;29.80;;;;;;10394442;28;20232;-75
2022/02/28 04:45:33;;;;;;;6.83;5.33;;;1.40;29.80;;;;;;10405532;28;20229;-75
2022/02/28 04:50:37;;;;;;;5.30;4.77;;;1.40;29.90;;;;;;10400118;28;20230;-75
2022/02/28 04:55:41;;;;;;;4.93;4.43;;;1.50;30.00;;;;;;10372424;28;20941;-74
2022/02/28 05:00:44;;;;;;;6.20;5.20;;;1.40;30.00;;;;;;10399604;28;20242;-74
2022/02/28 05:05:49;;;;;;;6.40;5.03;;;1.40;29.90;;;;;;10379835;28;20250;-74
2022/02/28 05:10:53;;;;;;;5.63;4.87;;;1.40;30.00;;;;;;10380066;28;20222;-74
2022/02/28 05:15:56;;;;;;;5.23;4.60;;;1.40;30.00;;;;;;10412045;28;20226;-74
2022/02/28 05:20:59;;;;;;;6.13;5.37;;;1.40;29.90;;;;;;10403739;28;20233;-75
2022/02/28 05:26:04;;;;;;;5.90;5.10;;;1.50;29.90;;;;;;10376423;28;20609;-74
2022/02/28 05:31:13;;;;;;;5.53;5.00;;;1.40;29.90;;;;;;10393576;28;20713;-73
2022/02/28 05:36:16;;;;;;;5.57;4.27;;;1.50;30.00;;;;;;10389944;28;20252;-75
2022/02/28 05:41:21;;;;;;;5.67;5.07;;;1.40;30.00;;;;;;10369818;28;20241;-74
2022/02/28 05:46:24;;;;;;;5.17;4.67;;;1.40;30.00;;;;;;10391395;28;20241;-75
2022/02/28 05:51:27;;;;;;;7.60;5.23;;;1.30;29.90;;;;;;10396197;28;20228;-75
2022/02/28 05:56:32;;;;;;;6.20;4.93;;;1.20;29.70;;;;;;10393984;28;20233;-75
2022/02/28 06:01:37;;;;;;;5.33;4.83;;;1.20;30.00;;;;;;10388481;28;20396;-74
2022/02/28 06:06:40;;;;;;;6.40;5.20;;;1.10;30.00;;;;;;10395968;28;20264;-74
2022/02/28 06:11:45;;;;;;;5.30;4.80;;;1.10;30.00;;;;;;10402525;28;20229;-75
2022/02/28 06:16:48;;;;;;;5.87;4.90;;;1.20;30.10;;;;;;10396807;28;20228;-74
2022/02/28 06:21:53;;;;;;;6.20;5.20;;;1.00;30.00;;;;;;10380986;28;20322;-75
2022/02/28 06:26:57;;;;;;;17.53;12.40;;;1.00;30.00;;;;;;10380463;28;20488;-74
2022/02/28 06:32:01;;;;;;;20.83;15.13;;;1.00;30.30;;;;;;10384075;28;20230;-74
2022/02/28 06:37:04;;;;;;;14.37;11.87;;;1.00;30.40;;;;;;10382947;28;20233;-75
2022/02/28 06:42:10;;;;;;;21.47;16.33;;;0.90;30.40;;;;;;10386602;28;20226;-76
2022/02/28 06:47:13;;;;;;;15.33;13.07;;;0.80;30.70;;;;;;10395363;28;20241;-75
2022/02/28 06:52:17;;;;;;;13.87;9.13;;;0.80;30.70;;;;;;10392062;28;20596;-76
2022/02/28 06:57:22;;;;;;;10.23;8.70;;;0.80;31.70;;;;;;10391020;28;20232;-76
2022/02/28 07:02:25;;;;;;;11.20;8.03;;;1.00;33.40;;;;;;10391610;28;20231;-76
2022/02/28 07:07:28;;;;;;;18.43;8.87;;;1.10;32.70;;;;;;10366437;28;20230;-76
2022/02/28 07:12:33;;;;;;;10.30;8.70;;;1.30;32.50;;;;;;10395262;28;20229;-77
2022/02/28 07:17:36;;;;;;;12.87;8.37;;;1.40;32.30;;;;;;10393937;28;20248;-76
2022/02/28 07:22:40;;;;;;;14.17;9.57;;;1.50;32.00;;;;;;10373772;28;20238;-77
2022/02/28 07:27:44;;;;;;;11.97;8.83;;;1.60;32.00;;;;;;10379441;28;20721;-77
2022/02/28 07:32:50;;;;;;;10.20;8.23;;;1.70;32.20;;;;;;10387346;28;20312;-77
2022/02/28 07:37:54;;;;;;;9.50;7.80;;;1.80;32.10;;;;;;10392257;28;20233;-77
2022/02/28 07:42:59;;;;;;;9.97;7.57;;;1.90;32.10;;;;;;10397831;28;20255;-76
2022/02/28 07:48:02;;;;;;;7.40;6.63;;;1.90;32.40;;;;;;10387807;28;20247;-78
2022/02/28 07:53:05;;;;;;;7.43;6.20;;;2.10;32.40;;;;;;10398181;28;20320;-76
2022/02/28 07:58:09;;;;;;;6.30;5.70;;;2.30;32.60;;;;;;10406403;28;20244;-77
2022/02/28 08:03:13;;;;;;;6.23;5.63;;;2.30;32.90;;;;;;10410234;28;20244;-75
2022/02/28 08:08:16;;;;;;;6.67;5.93;;;2.40;32.80;;;;;;10410196;28;21013;-75
2022/02/28 08:13:21;;;;;;;6.63;5.90;;;2.70;33.20;;;;;;10407387;28;20254;-75
2022/02/28 08:18:24;;;;;;;6.57;5.97;;;3.00;33.60;;;;;;10381196;28;20340;-74
2022/02/28 08:23:27;;;;;;;7.53;6.50;;;3.10;33.60;;;;;;10369362;28;20268;-75
2022/02/28 08:28:32;;;;;;;6.93;6.17;;;3.40;33.70;;;;;;10367129;28;20222;-73
2022/02/28 08:33:35;;;;;;;7.47;6.47;;;3.70;33.80;;;;;;10379740;28;20217;-73
2022/02/28 08:38:38;;;;;;;7.90;7.10;;;4.00;33.50;;;;;;10374386;28;20241;-74
2022/02/28 08:43:43;;;;;;;7.37;6.67;;;4.30;33.50;;;;;;10371439;28;20229;-75
2022/02/28 08:48:47;;;;;;;8.07;7.27;;;4.60;33.30;;;;;;10370805;28;20230;-75
2022/02/28 08:53:50;;;;;;;8.23;7.33;;;5.00;33.20;;;;;;10371161;28;20245;-74
2022/02/28 08:58:54;;;;;;;8.07;7.37;;;5.20;33.10;;;;;;10371702;28;20842;-75
2022/02/28 09:03:58;;;;;;;8.53;7.47;;;5.50;32.90;;;;;;10375780;28;20238;-76
2022/02/28 09:09:01;;;;;;;8.40;7.50;;;5.80;32.70;;;;;;10376194;28;20733;-75
2022/02/28 09:14:06;;;;;;;8.27;7.43;;;6.10;32.60;;;;;;10374386;28;20261;-76
2022/02/28 09:19:09;;;;;;;8.67;7.70;;;6.40;32.30;;;;;;10367471;28;20261;-74
2022/02/28 09:24:13;;;;;;;8.00;7.27;;;6.60;32.30;;;;;;10370586;28;20233;-75
2022/02/28 09:29:18;;;;;;;8.77;7.83;;;6.90;32.30;;;;;;10368836;28;20253;-75
2022/02/28 09:34:22;;;;;;;9.10;8.13;;;7.20;32.10;;;;;;10362490;28;21048;-76
2022/02/28 09:39:25;;;;;;;8.73;7.93;;;7.40;31.60;;;;;;10367673;28;20276;-74
2022/02/28 09:44:33;;;;;;;8.57;7.70;;;7.60;31.60;;;;;;10364844;28;20958;-74
2022/02/28 09:49:36;;;;;;;8.03;7.23;;;7.80;31.40;;;;;;10368938;28;20233;-75
2022/02/28 09:54:40;;;;;;;8.63;7.67;;;8.00;31.30;;;;;;10368466;28;20233;-75
2022/02/28 09:59:45;;;;;;;9.50;8.57;;;8.20;30.70;;;;;;10365687;28;20246;-76
2022/02/28 10:04:48;;;;;;;8.03;7.23;;;8.20;30.00;;;;;;10352500;28;20236;-75
2022/02/28 10:10:03;;;;;;;9.50;8.03;;;8.30;30.00;;;;;;10366196;28;20225;-75
2022/02/28 10:15:12;;;;;;;8.33;7.40;;;8.30;29.60;;;;;;10366333;28;20244;-75
2022/02/28 10:20:17;;;;;;;7.57;6.77;;;8.40;29.70;;;;;;10372055;28;20256;-76
2022/02/28 10:25:32;;;;;;;8.13;7.43;;;8.60;29.80;;;;;;10362828;28;20309;-75
2022/02/28 10:30:37;;;;;;;8.77;7.13;;;8.70;29.80;;;;;;10366230;28;20244;-74
2022/02/28 10:36:00;;;;;;;8.43;6.93;;;8.90;29.60;;;;;;10370053;28;20230;-73
2022/02/28 10:41:05;;;;;;;7.27;6.67;;;9.10;29.40;;;;;;10369662;28;20232;-74
2022/02/28 10:46:17;;;;;;;7.67;6.87;;;9.20;29.20;;;;;;10369779;28;20249;-75
2022/02/28 10:51:21;;;;;;;7.47;6.60;;;9.30;28.60;;;;;;10372115;28;20226;-77
2022/02/28 10:56:24;;;;;;;7.10;6.27;;;9.40;29.10;;;;;;10371414;28;20233;-74
2022/02/28 11:01:39;;;;;;;7.90;7.10;;;9.60;29.00;;;;;;10375457;28;20232;-75
2022/02/28 11:06:49;;;;;;;7.57;6.87;;;9.80;28.20;;;;;;10381688;28;20781;-75
2022/02/28 11:11:52;;;;;;;7.73;7.03;;;10.00;27.70;;;;;;10382280;28;20822;-75
2022/02/28 11:16:57;;;;;;;7.80;7.00;;;10.20;28.50;;;;;;10376474;28;20230;-73
2022/02/28 11:22:01;;;;;;;8.33;7.53;;;10.30;27.20;;;;;;10372338;28;20249;-75
2022/02/28 11:27:05;;;;;;;8.77;7.70;;;10.30;27.40;;;;;;10369991;28;20291;-76
2022/02/28 11:32:11;;;;;;;8.10;7.30;;;10.30;27.40;;;;;;10375828;28;20217;-76
2022/02/28 11:37:21;;;;;;;7.97;7.17;;;10.30;26.80;;;;;;10373942;28;20852;-74
2022/02/28 11:42:58;;;;;;;7.47;6.77;;;10.30;26.50;;;;;;10375516;28;20280;-74
2022/02/28 11:48:16;;;;;;;7.10;6.40;;;10.30;26.40;;;;;;10374121;28;20257;-73
2022/02/28 11:53:39;;;;;;;7.23;6.53;;;10.40;26.40;;;;;;10369566;28;20222;-73
2022/02/28 11:58:48;;;;;;;6.93;6.33;;;10.40;25.80;;;;;;10378426;28;20258;-74
2022/02/28 12:04:11;;;;;;;7.33;6.60;;;10.50;26.20;;;;;;10384537;28;20357;-74
2022/02/28 12:09:37;;;;;;;9.23;6.40;;;10.60;25.50;;;;;;10381268;28;20321;-74
2022/02/28 12:15:12;;;;;;;8.83;6.20;;;10.60;25.40;;;;;;10380002;28;20231;-74
2022/02/28 12:20:19;;;;;;;7.83;7.07;;;10.60;25.10;;;;;;10384823;28;20832;-74
2022/02/28 12:25:30;;;;;;;6.63;6.03;;;10.60;25.50;;;;;;10380809;28;20701;-74
2022/02/28 12:30:47;;;;;;;6.13;5.57;;;10.50;24.90;;;;;;10380493;28;20231;-74
2022/02/28 12:35:57;;;;;;;6.10;5.50;;;10.50;24.90;;;;;;10381540;28;20392;-74
2022/02/28 12:41:02;;;;;;;6.40;5.77;;;10.50;25.60;;;;;;10383457;28;20226;-74
2022/02/28 12:46:07;;;;;;;6.90;5.57;;;10.50;25.30;;;;;;10377592;28;20253;-74
2022/02/28 12:51:14;;;;;;;6.60;5.90;;;10.40;25.40;;;;;;10369767;28;20226;-74
2022/02/28 12:56:19;;;;;;;8.57;5.80;;;10.40;25.30;;;;;;10378346;28;20329;-73
2022/02/28 13:01:24;;;;;;;6.23;5.63;;;10.40;25.50;;;;;;10377266;28;20438;-74
2022/02/28 13:06:31;;;;;;;6.00;5.40;;;10.40;25.40;;;;;;10379402;28;20233;-74
2022/02/28 13:11:36;;;;;;;6.53;5.40;;;10.30;24.20;;;;;;10380126;28;20246;-74
2022/02/28 13:16:42;;;;;;;5.93;5.27;;;10.30;25.00;;;;;;10376639;28;20253;-75
2022/02/28 13:21:53;;;;;;;6.07;4.70;;;10.30;25.20;;;;;;10383013;28;20844;-75
2022/02/28 13:26:56;;;;;;;5.90;5.30;;;10.30;24.40;;;;;;10379231;28;20249;-75
2022/02/28 13:32:02;;;;;;;5.37;4.87;;;10.40;25.30;;;;;;10378710;28;20307;-75
2022/02/28 13:37:18;;;;;;;5.77;5.17;;;10.30;24.60;;;;;;10382477;28;20225;-75
2022/02/28 13:42:26;;;;;;;6.17;5.00;;;10.30;23.90;;;;;;10383166;28;20729;-74
2022/02/28 13:47:36;;;;;;;5.90;5.23;;;10.40;24.70;;;;;;10379677;28;20230;-74
2022/02/28 13:52:41;;;;;;;5.20;4.70;;;10.40;23.80;;;;;;10376566;28;20233;-74
2022/02/28 13:57:51;;;;;;;5.60;5.10;;;10.40;24.60;;;;;;10380984;28;20246;-75
2022/02/28 14:02:56;;;;;;;5.63;5.13;;;10.50;24.60;;;;;;10385494;28;20314;-74
2022/02/28 14:08:07;;;;;;;5.77;5.17;;;10.60;24.10;;;;;;10387895;28;20230;-74
2022/02/28 14:13:17;;;;;;;7.37;6.23;;;10.60;23.90;;;;;;10373190;28;20226;-75
2022/02/28 14:18:21;;;;;;;5.97;5.37;;;10.60;23.40;;;;;;10375518;28;20268;-76
2022/02/28 14:23:25;;;;;;;6.00;5.27;;;10.70;24.00;;;;;;10374959;28;20481;-75
2022/02/28 14:28:30;;;;;;;7.03;5.33;;;10.70;24.00;;;;;;10380370;28;20242;-76
2022/02/28 14:33:44;;;;;;;5.87;5.30;;;10.70;24.20;;;;;;10380366;28;20230;-76
2022/02/28 14:38:49;;;;;;;5.73;5.20;;;10.70;24.00;;;;;;10374019;28;20338;-73
2022/02/28 14:43:53;;;;;;;6.33;5.20;;;10.70;24.80;;;;;;10361872;28;20230;-74
2022/02/28 14:48:57;;;;;;;5.80;5.03;;;10.80;24.80;;;;;;10405120;28;20300;-74
2022/02/28 14:54:02;;;;;;;6.00;5.40;;;10.90;25.50;;;;;;10372666;28;20237;-73
2022/02/28 14:59:06;;;;;;;5.67;4.87;;;11.00;24.70;;;;;;10363261;28;20238;-74
2022/02/28 15:04:13;;;;;;;5.00;4.50;;;11.10;24.40;;;;;;10364907;28;20235;-73
2022/02/28 15:09:17;;;;;;;4.90;4.20;;;11.10;24.20;;;;;;10365553;28;20234;-74
2022/02/28 15:14:21;;;;;;;6.77;4.90;;;11.10;23.70;;;;;;10365583;28;21132;-74
2022/02/28 15:19:24;;;;;;;5.17;4.67;;;11.00;23.80;;;;;;10369944;28;20291;-75
2022/02/28 15:24:28;;;;;;;4.73;4.00;;;11.00;23.90;;;;;;10387642;28;20731;-77
2022/02/28 15:29:33;;;;;;;7.23;4.00;;;10.90;23.10;;;;;;10386551;28;20240;-77
2022/02/28 15:34:36;;;;;;;4.73;4.33;;;10.80;23.40;;;;;;10379551;28;20222;-75
2022/02/28 15:39:44;;;;;;;5.37;4.63;;;10.80;23.30;;;;;;10385135;28;20225;-74
2022/02/28 15:44:50;;;;;;;5.43;4.20;;;10.80;22.90;;;;;;10385709;28;21258;-77
2022/02/28 15:49:54;;;;;;;5.50;5.00;;;10.70;23.20;;;;;;10381771;28;20233;-73
2022/02/28 15:54:58;;;;;;;5.40;4.60;;;10.70;23.20;;;;;;10381656;28;20232;-75
2022/02/28 16:00:01;;;;;;;4.97;4.53;;;10.60;22.90;;;;;;10376227;28;20237;-81
2022/02/28 16:05:06;;;;;;;7.67;4.90;;;10.60;23.30;;;;;;10379203;28;20261;-75
2022/02/28 16:10:29;;;;;;;5.80;5.10;;;10.60;23.20;;;;;;10386242;28;20234;-75
2022/02/28 16:15:32;;;;;;;5.07;4.57;;;10.60;22.80;;;;;;10373338;28;20240;-75
2022/02/28 16:20:38;;;;;;;5.37;4.87;;;10.60;23.20;;;;;;10385135;28;20595;-77
2022/02/28 16:25:43;;;;;;;7.27;5.37;;;10.50;23.10;;;;;;10384841;28;20703;-77
2022/02/28 16:30:47;;;;;;;6.97;5.00;;;10.50;22.80;;;;;;10389779;28;20225;-78
2022/02/28 16:35:50;;;;;;;7.97;5.00;;;10.40;23.20;;;;;;10382687;28;20236;-78
2022/02/28 16:40:55;;;;;;;5.33;4.83;;;10.30;23.10;;;;;;10391835;28;20317;-78
2022/02/28 16:45:58;;;;;;;28.73;24.13;;;10.30;22.90;;;;;;10385478;28;20230;-76
2022/02/28 16:51:03;;;;;;;8.27;7.00;;;10.20;23.20;;;;;;10387247;28;20226;-76
2022/02/28 16:56:07;;;;;;;6.00;5.33;;;10.20;23.30;;;;;;10390037;28;20230;-77
2022/02/28 17:01:10;;;;;;;7.90;5.80;;;10.10;23.10;;;;;;10392922;28;20234;-76
2022/02/28 17:06:14;;;;;;;6.00;5.40;;;10.00;23.20;;;;;;10394603;28;21004;-76
2022/02/28 17:11:18;;;;;;;6.90;4.80;;;9.90;24.00;;;;;;10386479;28;20225;-76
2022/02/28 17:16:21;;;;;;;6.90;5.63;;;9.80;23.80;;;;;;10382948;28;20234;-77
2022/02/28 17:21:25;;;;;;;6.17;4.93;;;9.70;24.00;;;;;;10388795;28;20253;-77
2022/02/28 17:26:30;;;;;;;5.90;5.07;;;9.60;24.00;;;;;;10384385;28;20245;-77
2022/02/28 17:31:33;;;;;;;5.77;4.73;;;9.50;23.90;;;;;;10392326;28;20225;-77
2022/02/28 17:36:36;;;;;;;6.77;6.07;;;9.40;23.90;;;;;;10397223;28;20356;-78
2022/02/28 17:41:41;;;;;;;6.63;5.87;;;9.30;23.90;;;;;;10384073;28;20772;-77
2022/02/28 17:46:46;;;;;;;5.83;5.23;;;9.10;23.60;;;;;;10383695;28;20234;-80
2022/02/28 17:51:51;;;;;;;7.23;5.53;;;9.00;23.60;;;;;;10379319;28;20237;-78
2022/02/28 17:56:55;;;;;;;5.80;5.20;;;8.90;23.50;;;;;;10380420;28;20228;-78
2022/02/28 18:02:01;;;;;;;6.30;5.40;;;8.80;23.70;;;;;;10387960;28;20817;-77
2022/02/28 18:07:05;;;;;;;6.27;5.23;;;8.70;23.80;;;;;;10389603;28;20385;-78
2022/02/28 18:12:10;;;;;;;6.97;6.10;;;8.60;23.70;;;;;;10386643;28;22739;-77
2022/02/28 18:17:13;;;;;;;7.13;6.37;;;8.60;23.80;;;;;;10385630;28;20248;-77
2022/02/28 18:22:17;;;;;;;6.53;5.93;;;8.50;23.80;;;;;;10387997;28;20884;-77
2022/02/28 18:27:21;;;;;;;7.43;5.93;;;8.40;23.80;;;;;;10386957;28;20232;-77
2022/02/28 18:32:36;;;;;;;7.20;6.07;;;8.30;23.70;;;;;;10385140;28;20568;-77
2022/02/28 18:37:41;;;;;;;7.33;6.20;;;8.20;23.40;;;;;;10387253;28;20377;-77
2022/02/28 18:42:47;;;;;;;7.27;6.37;;;8.10;23.70;;;;;;10395433;28;20593;-77
2022/02/28 18:47:52;;;;;;;8.47;6.70;;;7.90;23.50;;;;;;10380341;28;20238;-77
2022/02/28 18:52:56;;;;;;;10.50;7.40;;;7.80;23.70;;;;;;10381493;28;20230;-77
2022/02/28 18:58:02;;;;;;;9.63;7.47;;;7.70;23.80;;;;;;10387319;28;20229;-77
2022/02/28 19:03:06;;;;;;;8.73;7.37;;;7.60;23.90;;;;;;10393757;28;20226;-77
2022/02/28 19:08:09;;;;;;;10.23;8.57;;;7.50;24.20;;;;;;10390385;28;20229;-76
2022/02/28 19:13:14;;;;;;;8.27;7.23;;;7.50;24.10;;;;;;10395601;28;20240;-77
2022/02/28 19:18:18;;;;;;;8.83;7.90;;;7.40;24.10;;;;;;10392656;28;20226;-77
2022/02/28 19:23:22;;;;;;;9.23;8.23;;;7.30;24.20;;;;;;10387456;28;20234;-77
2022/02/28 19:28:29;;;;;;;8.47;6.83;;;7.20;24.20;;;;;;10388891;28;20232;-77
2022/02/28 19:33:34;;;;;;;8.30;7.40;;;7.20;24.30;;;;;;10392229;28;20259;-77
2022/02/28 19:38:38;;;;;;;8.77;7.87;;;7.10;24.50;;;;;;10384463;28;20233;-77
2022/02/28 19:43:44;;;;;;;9.87;8.63;;;7.10;24.40;;;;;;10388978;28;20236;-77
2022/02/28 19:48:50;;;;;;;10.03;8.67;;;7.00;24.40;;;;;;10384471;28;20227;-77
2022/02/28 19:53:54;;;;;;;11.20;9.00;;;6.90;24.40;;;;;;10392570;28;20610;-77
2022/02/28 19:59:19;;;;;;;10.83;8.80;;;6.80;24.40;;;;;;10391169;28;20234;-77
2022/02/28 20:04:23;;;;;;;10.10;8.63;;;6.60;24.00;;;;;;10387918;28;20257;-77
2022/02/28 20:09:27;;;;;;;13.83;9.13;;;6.40;24.10;;;;;;10388523;28;20229;-77
2022/02/28 20:14:34;;;;;;;10.77;8.63;;;6.20;24.40;;;;;;10387277;28;20657;-78
2022/02/28 20:19:38;;;;;;;9.90;8.50;;;6.00;24.70;;;;;;10381082;28;20230;-77
2022/02/28 20:24:41;;;;;;;9.23;7.80;;;6.00;24.80;;;;;;10383571;28;20218;-78
2022/02/28 20:29:46;;;;;;;10.27;8.30;;;6.00;24.80;;;;;;10385563;28;20625;-78
2022/02/28 20:34:50;;;;;;;10.07;7.97;;;5.90;24.70;;;;;;10388187;28;20218;-76
2022/02/28 20:39:53;;;;;;;9.63;8.43;;;5.90;24.90;;;;;;10377856;28;20234;-76
2022/02/28 20:44:58;;;;;;;9.43;8.07;;;5.90;24.80;;;;;;10375703;28;20241;-76
2022/02/28 20:50:01;;;;;;;10.13;8.00;;;5.80;24.70;;;;;;10379202;28;20313;-76
2022/02/28 20:55:05;;;;;;;9.63;8.27;;;5.80;24.80;;;;;;10372854;28;20215;-76
2022/02/28 21:00:10;;;;;;;8.97;7.87;;;5.70;24.60;;;;;;10376485;28;20242;-76
2022/02/28 21:05:13;;;;;;;9.73;8.13;;;5.70;24.60;;;;;;10373905;28;20806;-76
2022/02/28 21:10:17;;;;;;;8.57;7.67;;;5.70;24.70;;;;;;10375864;28;20234;-76
2022/02/28 21:15:21;;;;;;;8.43;7.53;;;5.60;24.70;;;;;;10384366;28;20703;-76
2022/02/28 21:20:25;;;;;;;10.67;8.37;;;5.60;24.60;;;;;;10387511;28;20232;-76
2022/02/28 21:25:28;;;;;;;8.77;7.87;;;5.50;24.50;;;;;;10379612;28;20230;-75
2022/02/28 21:30:34;;;;;;;8.77;7.87;;;5.40;24.60;;;;;;10379575;28;20736;-75
2022/02/28 21:35:37;;;;;;;9.10;8.10;;;5.40;24.70;;;;;;10381267;28;20233;-74
2022/02/28 21:40:40;;;;;;;9.63;7.77;;;5.30;24.60;;;;;;10379377;28;20229;-75
2022/02/28 21:45:45;;;;;;;8.63;7.77;;;5.30;24.70;;;;;;10367727;28;20730;-74
2022/02/28 21:50:51;;;;;;;9.80;7.63;;;5.30;24.70;;;;;;10367518;28;20218;-74
2022/02/28 21:55:54;;;;;;;8.67;7.57;;;5.30;24.80;;;;;;10367018;28;20768;-75
2022/02/28 22:01:00;;;;;;;9.30;7.60;;;5.30;24.70;;;;;;10367038;28;20230;-75
2022/02/28 22:06:06;;;;;;;8.07;7.27;;;5.30;24.80;;;;;;10366399;28;20254;-74
2022/02/28 22:11:09;;;;;;;8.40;7.47;;;5.30;24.80;;;;;;10366798;28;20234;-75
2022/02/28 22:16:14;;;;;;;8.60;7.20;;;5.30;24.70;;;;;;10366246;28;20234;-75
2022/02/28 22:21:17;;;;;;;8.30;7.50;;;5.40;24.70;;;;;;10367380;28;20592;-77
2022/02/28 22:26:20;;;;;;;7.73;6.93;;;5.40;24.70;;;;;;10366254;28;20600;-77
2022/02/28 22:31:24;;;;;;;8.33;7.23;;;5.30;24.70;;;;;;10367816;28;20233;-77
2022/02/28 22:36:28;;;;;;;9.13;7.33;;;5.30;24.80;;;;;;10371518;28;20241;-77
2022/02/28 22:41:34;;;;;;;8.50;6.67;;;5.30;24.70;;;;;;10372549;28;20253;-77
2022/02/28 22:46:41;;;;;;;9.37;6.63;;;5.30;24.80;;;;;;10373331;28;20230;-78
2022/02/28 22:51:44;;;;;;;7.80;6.87;;;5.30;24.70;;;;;;10374119;28;20313;-77
2022/02/28 22:56:47;;;;;;;10.73;6.77;;;5.30;24.80;;;;;;10373595;28;20238;-78
2022/02/28 23:01:52;;;;;;;7.73;6.97;;;5.20;24.80;;;;;;10373830;28;20711;-77
2022/02/28 23:06:57;;;;;;;7.67;6.67;;;5.20;24.70;;;;;;10387820;28;20275;-77
2022/02/28 23:22:53;;;;;;;7.77;7.00;;;5.10;24.80;;;;;;10376314;28;20721;-78
2022/02/28 23:27:56;;;;;;;7.07;6.37;;;5.00;24.80;;;;;;10411959;28;20239;-77
2022/02/28 23:33:01;;;;;;;8.03;6.50;;;5.00;24.70;;;;;;10409834;28;20232;-76
2022/02/28 23:38:04;;;;;;;9.23;7.03;;;4.90;24.70;;;;;;10409378;28;20226;-77
2022/02/28 23:43:07;;;;;;;7.13;6.37;;;4.80;24.80;;;;;;10407114;28;20324;-77
2022/02/28 23:48:12;;;;;;;7.07;6.30;;;4.80;24.90;;;;;;10409785;28;20237;-77
2022/02/28 23:53:15;;;;;;;8.43;6.70;;;4.70;24.90;;;;;;10373640;28;20245;-76
2022/02/28 23:58:18;;;;;;;6.20;5.60;;;4.70;24.90;;;;;;10368974;28;20607;-77
